Arthur, North Dakota
Current Conditions -  °F | °C
As of 8:53 PM on Saturday 25 Oct 2014 (Local Time) from KFAR Reporting Station
Clear Clear  
Wind Chill: 40°   Ceiling: Unl
Heat Index: 40°   Visibility: 10mi
Dew Point: 21°   Wind: 0mph
Humidity: 47%   Direction: NA
Pressure: 30.03"   Gusts: NA
Location:  47.1°N, 97.22°W
Report Text: KFAR 260153Z 00000KT 10SM CLR 04/M06 A3003 RMK AO2 SLP177 T00441061
Loading
Personal Weather Stations






























Interactive Weather Map New forecast layout! Learn more

10-Day Weather Forecast

Advertisements
Track Severe Weather on mobile